MET'MAP v2.0
soon released !

Expected late october,
this new version will be
more efficient, smarter,
and hosted on a brand new
server x3 powerfull...
...and still free !


Not compatible ?
Try the mobile version !

LOG IN : | Subscribe | Disclaimer | Who is Orbifly ? |
ICAO code :

TAF - LDSB Bol Airport - 12 Dec 2019 01:46 UTC - Data Source NOAA   


- Airport Elevation : 1776 ft
- IATA code : BWK
- No reported NOTAMs.


LDSB - Bol Airport

Latest METAR recorded : 2015/08/09 15:00 LDSB 091500Z 14009KT CAVOK 30/15 Q1016
Expired Forecast.

Source NOAA


MET'MAP, your aeronautical weather chart ! - Copyright ORBIFLY December 2007

Programming & Development : Alexandra Zaïnal
Co-Developer : Marc-Olivier Méhu
Technical & hardware support : Manuel Goepfert
Concept & Financing : Baudouin d'Aumeries